Time;durP1;ratioP1;P1;durP2;ratioP2;P2;SDS_P1;SDS_P2;PMS_P1;PMS_P2;Temp;Humidity;BMP_temperature;BMP_pressure;BME280_temperature;BME280_humidity;BME280_pressure;Samples;Min_cycle;Max_cycle;Signal;HPM_P1;HPM_P2
2022/01/26 00:06:42;;;;;;;36.33;14.60;;;;;;;;;;7394256;19;20817;-78
2022/01/26 00:09:09;;;;;;;37.40;15.63;;;;;;;;;;7393902;19;20036;-78
2022/01/26 00:11:36;;;;;;;38.47;14.15;;;;;;;;;;7393733;19;20066;-79
2022/01/26 00:14:03;;;;;;;35.50;14.88;;;;;;;;;;7393912;19;20026;-78
2022/01/26 00:16:38;;;;;;;40.05;14.63;;;;;;;;;;7393195;19;20006;-77
2022/01/26 00:19:05;;;;;;;;;;;;;;;;;;7395808;19;20390;-77
2022/01/26 00:21:42;;;;;;;32.90;11.18;;;;;;;;;;7390309;19;19914;-78
2022/01/26 00:29:17;;;;;;;34.45;13.32;;;;;;;;;;7394309;19;20021;-77
2022/01/26 00:40:15;;;;;;;32.30;12.75;;;;;;;;;;7391520;19;20025;-78
2022/01/26 00:42:43;;;;;;;32.90;14.18;;;;;;;;;;7393477;19;20018;-77
2022/01/26 00:45:09;;;;;;;34.33;13.43;;;;;;;;;;7391158;19;20082;-78
2022/01/26 00:47:35;;;;;;;35.75;14.93;;;;;;;;;;7393685;19;20023;-78
2022/01/26 00:50:06;;;;;;;33.85;14.63;;;;;;;;;;7391441;19;20007;-78
2022/01/26 00:52:43;;;;;;;41.13;16.00;;;;;;;;;;7393291;19;19998;-78
2022/01/26 00:55:18;;;;;;;36.35;15.27;;;;;;;;;;7393720;19;20015;-78
2022/01/26 00:57:44;;;;;;;35.90;14.57;;;;;;;;;;7393592;19;20007;-78
2022/01/26 01:00:15;;;;;;;36.85;14.90;;;;;;;;;;7391951;19;20515;-78
2022/01/26 01:02:40;;;;;;;30.20;13.93;;;;;;;;;;7391640;19;20006;-78
2022/01/26 01:05:16;;;;;;;33.20;13.23;;;;;;;;;;7393490;19;20019;-78
2022/01/26 01:07:43;;;;;;;34.10;14.27;;;;;;;;;;7392886;19;20498;-79
2022/01/26 01:10:08;;;;;;;31.88;12.93;;;;;;;;;;7391785;19;20023;-78
2022/01/26 01:12:40;;;;;;;35.30;15.02;;;;;;;;;;7392746;19;20014;-78
2022/01/26 01:15:06;;;;;;;41.20;15.80;;;;;;;;;;7391942;19;20014;-78
2022/01/26 01:17:38;;;;;;;33.25;14.05;;;;;;;;;;7391810;19;20114;-77
2022/01/26 01:26:02;;;;;;;31.25;12.57;;;;;;;;;;7392934;19;20024;-78
2022/01/26 01:31:06;;;;;;;29.05;12.85;;;;;;;;;;7391387;19;20016;-78
2022/01/26 01:33:37;;;;;;;29.23;12.25;;;;;;;;;;7393432;19;20441;-78
2022/01/26 01:36:05;;;;;;;27.20;12.07;;;;;;;;;;7393278;19;20036;-78
2022/01/26 01:38:30;;;;;;;32.30;12.40;;;;;;;;;;7393729;19;20032;-78
2022/01/26 01:40:56;;;;;;;31.40;13.30;;;;;;;;;;7397793;19;20011;-77
2022/01/26 01:43:22;;;;;;;30.80;11.63;;;;;;;;;;7394091;19;20006;-78
2022/01/26 01:45:51;;;;;;;33.22;12.85;;;;;;;;;;7394145;19;20015;-78
2022/01/26 01:48:22;;;;;;;35.03;14.05;;;;;;;;;;7397901;19;20015;-78
2022/01/26 01:50:50;;;;;;;38.70;15.20;;;;;;;;;;7395099;19;20010;-78
2022/01/26 01:53:17;;;;;;;32.83;14.02;;;;;;;;;;7400687;19;20027;-77
2022/01/26 01:55:48;;;;;;;33.50;14.05;;;;;;;;;;7399785;19;20010;-77
2022/01/26 01:58:13;;;;;;;38.05;15.20;;;;;;;;;;7396096;19;20018;-78
2022/01/26 02:00:39;;;;;;;29.90;13.07;;;;;;;;;;7396683;19;20078;-78
2022/01/26 02:03:04;;;;;;;29.70;11.73;;;;;;;;;;7395759;19;20032;-78
2022/01/26 02:05:30;;;;;;;35.88;13.82;;;;;;;;;;7397863;19;20007;-79
2022/01/26 02:07:55;;;;;;;31.73;12.65;;;;;;;;;;7399041;19;20023;-78
2022/01/26 02:10:23;;;;;;;33.97;13.55;;;;;;;;;;7398937;19;20509;-78
2022/01/26 02:12:52;;;;;;;33.22;13.00;;;;;;;;;;7395499;19;20014;-78
2022/01/26 02:15:23;;;;;;;30.15;13.00;;;;;;;;;;7394044;19;19999;-77
2022/01/26 02:55:52;;;;;;;28.02;11.65;;;;;;;;;;7394025;19;20070;-78
2022/01/26 02:58:49;;;;;;;30.90;12.27;;;;;;;;;;7395085;19;20526;-78
2022/01/26 03:03:53;;;;;;;27.15;12.48;;;;;;;;;;7395668;19;20010;-78
2022/01/26 03:06:25;;;;;;;25.75;11.48;;;;;;;;;;7393409;19;20208;-79
2022/01/26 03:08:57;;;;;;;28.00;11.95;;;;;;;;;;7392773;19;20007;-78
2022/01/26 03:11:27;;;;;;;25.60;10.82;;;;;;;;;;7389315;19;20440;-78
2022/01/26 03:13:59;;;;;;;22.80;9.70;;;;;;;;;;7392531;19;20528;-77
2022/01/26 03:16:40;;;;;;;32.92;13.05;;;;;;;;;;7394419;19;20011;-78
2022/01/26 03:19:23;;;;;;;29.27;10.80;;;;;;;;;;7392478;19;20014;-77
2022/01/26 03:29:55;;;;;;;25.83;11.20;;;;;;;;;;7394083;19;20035;-78
2022/01/26 03:35:13;;;;;;;24.63;10.23;;;;;;;;;;7396249;19;20009;-77
2022/01/26 03:37:39;;;;;;;25.10;10.32;;;;;;;;;;7397835;19;20477;-78
2022/01/26 03:40:12;;;;;;;27.50;12.77;;;;;;;;;;7395050;19;20002;-77
2022/01/26 03:42:38;;;;;;;34.33;12.38;;;;;;;;;;7393261;19;20006;-78
2022/01/26 03:45:03;;;;;;;24.95;12.05;;;;;;;;;;7391480;19;20338;-78
2022/01/26 03:47:29;;;;;;;24.92;11.90;;;;;;;;;;7395742;19;20108;-78
2022/01/26 03:49:54;;;;;;;28.02;12.77;;;;;;;;;;7393317;19;20031;-78
2022/01/26 03:52:19;;;;;;;31.13;12.55;;;;;;;;;;7399396;19;20149;-78
2022/01/26 03:54:44;;;;;;;27.00;11.85;;;;;;;;;;7395316;19;20024;-78
2022/01/26 03:57:10;;;;;;;27.00;11.25;;;;;;;;;;7392971;19;20006;-78
2022/01/26 03:59:35;;;;;;;31.70;12.85;;;;;;;;;;7395328;19;20347;-78
2022/01/26 04:02:00;;;;;;;30.13;13.13;;;;;;;;;;7390211;19;20010;-78
2022/01/26 04:04:26;;;;;;;34.75;14.00;;;;;;;;;;7393533;19;20031;-77
2022/01/26 04:06:51;;;;;;;36.58;13.88;;;;;;;;;;7397167;19;20014;-78
2022/01/26 04:09:18;;;;;;;41.45;14.80;;;;;;;;;;7394916;19;20445;-78
2022/01/26 04:11:48;;;;;;;32.22;12.95;;;;;;;;;;7393762;19;20071;-78
2022/01/26 04:14:17;;;;;;;29.05;12.68;;;;;;;;;;7393599;19;20070;-77
2022/01/26 04:16:43;;;;;;;26.98;12.55;;;;;;;;;;7397066;19;20403;-78
2022/01/26 04:19:10;;;;;;;29.58;12.38;;;;;;;;;;7394659;19;20010;-78
2022/01/26 04:22:04;;;;;;;31.50;13.02;;;;;;;;;;7389472;19;20011;-77
2022/01/26 04:24:38;;;;;;;33.03;12.27;;;;;;;;;;7390516;19;20003;-78
2022/01/26 04:27:32;;;;;;;32.08;12.73;;;;;;;;;;7392193;19;20379;-78
2022/01/26 04:29:57;;;;;;;25.95;10.88;;;;;;;;;;7387739;19;20014;-78
2022/01/26 04:32:23;;;;;;;29.33;12.57;;;;;;;;;;7393027;19;20010;-78
2022/01/26 04:34:49;;;;;;;33.88;12.88;;;;;;;;;;7394520;19;20038;-78
2022/01/26 04:37:28;;;;;;;30.67;12.60;;;;;;;;;;7393746;19;20022;-78
2022/01/26 04:40:02;;;;;;;23.17;11.05;;;;;;;;;;7391199;19;19999;-78
2022/01/26 04:42:39;;;;;;;31.83;13.15;;;;;;;;;;7394952;19;20014;-78
2022/01/26 04:45:08;;;;;;;27.88;10.90;;;;;;;;;;7391355;19;20481;-77
2022/01/26 04:47:34;;;;;;;31.67;11.85;;;;;;;;;;7394092;19;20006;-78
2022/01/26 04:49:59;;;;;;;27.17;12.05;;;;;;;;;;7392244;19;20014;-77
2022/01/26 04:52:25;;;;;;;26.23;11.63;;;;;;;;;;7393950;19;20131;-79
2022/01/26 04:54:51;;;;;;;30.25;12.70;;;;;;;;;;7393197;19;20074;-79
2022/01/26 04:57:16;;;;;;;30.67;12.18;;;;;;;;;;7392025;19;20016;-79
2022/01/26 04:59:41;;;;;;;33.25;13.30;;;;;;;;;;7389027;19;20018;-79
2022/01/26 05:02:07;;;;;;;30.65;13.10;;;;;;;;;;7386257;19;20010;-78
2022/01/26 05:04:32;;;;;;;30.08;12.77;;;;;;;;;;7391958;19;20010;-78
2022/01/26 05:06:57;;;;;;;31.42;12.55;;;;;;;;;;7388290;19;20009;-78
2022/01/26 05:09:23;;;;;;;41.85;14.48;;;;;;;;;;7388986;19;20363;-79
2022/01/26 05:11:51;;;;;;;35.05;13.82;;;;;;;;;;7391659;19;20071;-78
2022/01/26 05:14:16;;;;;;;28.33;12.23;;;;;;;;;;7391164;19;20015;-78
2022/01/26 05:16:42;;;;;;;29.77;11.82;;;;;;;;;;7390072;19;20028;-78
2022/01/26 05:19:07;;;;;;;23.08;10.48;;;;;;;;;;7391863;19;20007;-78
2022/01/26 05:21:33;;;;;;;29.88;12.50;;;;;;;;;;7390468;19;20003;-78
2022/01/26 05:23:58;;;;;;;32.95;12.80;;;;;;;;;;7392856;19;20078;-78
2022/01/26 05:26:24;;;;;;;35.53;12.95;;;;;;;;;;7390061;19;20357;-78
2022/01/26 05:28:49;;;;;;;28.60;12.10;;;;;;;;;;7392078;19;20007;-78
2022/01/26 05:31:15;;;;;;;33.00;13.10;;;;;;;;;;7391341;19;20006;-78
2022/01/26 05:33:41;;;;;;;37.15;13.05;;;;;;;;;;7389130;19;20062;-78
2022/01/26 05:36:06;;;;;;;20.48;8.85;;;;;;;;;;7392956;19;20015;-78
2022/01/26 05:38:32;;;;;;;27.55;10.57;;;;;;;;;;7390975;19;19999;-78
2022/01/26 05:41:01;;;;;;;28.75;10.68;;;;;;;;;;7387153;19;19998;-79
2022/01/26 05:43:27;;;;;;;30.00;11.35;;;;;;;;;;7389887;19;20113;-78
2022/01/26 05:45:56;;;;;;;34.13;12.93;;;;;;;;;;7388835;19;20011;-79
2022/01/26 05:48:21;;;;;;;29.85;11.70;;;;;;;;;;7387692;19;20006;-79
2022/01/26 05:50:52;;;;;;;24.58;10.25;;;;;;;;;;7388879;19;20017;-79
2022/01/26 05:53:21;;;;;;;25.73;11.40;;;;;;;;;;7387978;19;20017;-78
2022/01/26 05:55:51;;;;;;;25.17;10.73;;;;;;;;;;7388849;19;20009;-80
2022/01/26 05:58:16;;;;;;;28.02;12.50;;;;;;;;;;7389078;19;20092;-78
2022/01/26 06:00:42;;;;;;;22.80;10.13;;;;;;;;;;7386440;19;20009;-79
2022/01/26 06:03:07;;;;;;;21.20;9.60;;;;;;;;;;7388962;19;20003;-78
2022/01/26 06:05:32;;;;;;;30.90;11.20;;;;;;;;;;7386898;19;20025;-78
2022/01/26 06:07:57;;;;;;;27.25;12.23;;;;;;;;;;7387891;19;19995;-79
2022/01/26 06:10:22;;;;;;;27.80;11.93;;;;;;;;;;7392934;19;20523;-80
2022/01/26 06:12:48;;;;;;;39.33;18.33;;;;;;;;;;7391943;19;20014;-79
2022/01/26 06:15:13;;;;;;;27.90;14.13;;;;;;;;;;7394367;19;20009;-78
2022/01/26 06:17:38;;;;;;;22.13;9.93;;;;;;;;;;7392188;19;20054;-78
2022/01/26 06:20:04;;;;;;;26.02;11.13;;;;;;;;;;7388945;19;20028;-78
2022/01/26 06:22:30;;;;;;;26.23;12.50;;;;;;;;;;7389287;19;20031;-77
2022/01/26 06:24:57;;;;;;;30.98;13.30;;;;;;;;;;7396493;19;19990;-78
2022/01/26 06:27:22;;;;;;;36.67;19.35;;;;;;;;;;7404736;19;20002;-77
2022/01/26 06:29:48;;;;;;;33.65;16.95;;;;;;;;;;7400304;19;20013;-77
2022/01/26 06:32:15;;;;;;;28.17;13.15;;;;;;;;;;7392721;19;20066;-78
2022/01/26 06:34:41;;;;;;;24.95;11.23;;;;;;;;;;7395837;19;20007;-78
2022/01/26 06:37:06;;;;;;;24.65;11.15;;;;;;;;;;7397264;19;20319;-77
2022/01/26 06:39:32;;;;;;;30.90;13.63;;;;;;;;;;7396900;19;20010;-77
2022/01/26 06:41:57;;;;;;;33.45;11.48;;;;;;;;;;7396214;19;20464;-78
2022/01/26 06:44:29;;;;;;;30.55;12.13;;;;;;;;;;7396232;19;20123;-79
2022/01/26 06:51:52;;;;;;;26.23;11.20;;;;;;;;;;7395665;19;20003;-78
2022/01/26 06:54:19;;;;;;;28.30;11.40;;;;;;;;;;7396674;19;20014;-79
2022/01/26 06:56:46;;;;;;;24.30;10.27;;;;;;;;;;7395674;19;20497;-79
2022/01/26 06:59:13;;;;;;;27.13;11.57;;;;;;;;;;7398601;19;20039;-78
2022/01/26 07:01:39;;;;;;;31.45;12.63;;;;;;;;;;7398224;19;20082;-79
2022/01/26 07:04:04;;;;;;;30.67;12.65;;;;;;;;;;7395479;19;20562;-78
2022/01/26 07:06:29;;;;;;;24.05;10.57;;;;;;;;;;7395163;19;20051;-78
2022/01/26 07:08:55;;;;;;;32.03;13.27;;;;;;;;;;7391579;19;19998;-78
2022/01/26 07:11:20;;;;;;;32.17;13.98;;;;;;;;;;7396971;19;20005;-78
2022/01/26 07:13:46;;;;;;;25.13;10.93;;;;;;;;;;7397310;19;20785;-77
2022/01/26 07:21:40;;;;;;;21.70;9.15;;;;;;;;;;7396009;19;20602;-78
2022/01/26 07:24:06;;;;;;;27.48;12.63;;;;;;;;;;7398562;19;20010;-78
2022/01/26 07:26:32;;;;;;;29.95;11.88;;;;;;;;;;7396959;19;20001;-78
2022/01/26 07:29:00;;;;;;;26.77;10.70;;;;;;;;;;7396188;19;19999;-78
2022/01/26 07:31:25;;;;;;;23.23;10.52;;;;;;;;;;7392292;19;20126;-78
2022/01/26 07:33:55;;;;;;;28.20;10.65;;;;;;;;;;7399505;19;20107;-78
2022/01/26 07:36:22;;;;;;;24.55;10.25;;;;;;;;;;7395768;19;19998;-78
2022/01/26 07:38:52;;;;;;;22.33;10.27;;;;;;;;;;7397453;19;20010;-79
2022/01/26 07:41:18;;;;;;;24.58;10.95;;;;;;;;;;7393204;19;20020;-77
2022/01/26 07:43:43;;;;;;;22.17;10.65;;;;;;;;;;7393172;19;20344;-78
2022/01/26 07:46:10;;;;;;;25.70;10.65;;;;;;;;;;7394324;19;20017;-77
2022/01/26 07:48:35;;;;;;;21.75;9.77;;;;;;;;;;7393470;19;20021;-78
2022/01/26 07:51:01;;;;;;;21.60;9.70;;;;;;;;;;7390490;19;20014;-77
2022/01/26 07:53:26;;;;;;;24.58;9.15;;;;;;;;;;7391452;19;20002;-77
2022/01/26 07:55:51;;;;;;;21.23;9.68;;;;;;;;;;7393258;19;20449;-77
2022/01/26 07:58:18;;;;;;;22.58;9.13;;;;;;;;;;7389764;19;20013;-77
2022/01/26 08:00:44;;;;;;;22.00;9.82;;;;;;;;;;7387852;19;20015;-77
2022/01/26 08:03:09;;;;;;;20.65;9.90;;;;;;;;;;7390596;19;20374;-77
2022/01/26 08:05:34;;;;;;;25.83;11.63;;;;;;;;;;7390537;19;20816;-76
2022/01/26 08:08:00;;;;;;;25.33;11.00;;;;;;;;;;7390359;19;20015;-77
2022/01/26 08:10:25;;;;;;;18.52;9.43;;;;;;;;;;7389987;19;20022;-77
2022/01/26 08:12:50;;;;;;;28.98;12.43;;;;;;;;;;7390509;19;20002;-77
2022/01/26 08:15:16;;;;;;;35.47;12.10;;;;;;;;;;7389106;19;20076;-77
2022/01/26 08:17:42;;;;;;;26.80;11.82;;;;;;;;;;7390321;19;20007;-76
2022/01/26 08:20:09;;;;;;;23.08;10.65;;;;;;;;;;7389516;19;20014;-77
2022/01/26 08:22:35;;;;;;;32.47;13.20;;;;;;;;;;7390736;19;20014;-76
2022/01/26 08:25:00;;;;;;;34.00;12.40;;;;;;;;;;7389696;19;20739;-76
2022/01/26 08:27:29;;;;;;;33.67;13.30;;;;;;;;;;7392769;19;20098;-78
2022/01/26 08:30:02;;;;;;;26.85;12.20;;;;;;;;;;7392143;19;19995;-78
2022/01/26 08:32:27;;;;;;;26.75;11.60;;;;;;;;;;7397770;19;20002;-79
2022/01/26 08:34:53;;;;;;;29.17;12.43;;;;;;;;;;7395735;19;20110;-79
2022/01/26 08:37:19;;;;;;;32.35;14.48;;;;;;;;;;7396481;19;20449;-78
2022/01/26 08:39:44;;;;;;;28.63;13.13;;;;;;;;;;7394537;19;20591;-79
2022/01/26 08:42:10;;;;;;;32.78;14.57;;;;;;;;;;7391571;19;20007;-78
2022/01/26 08:44:35;;;;;;;33.88;14.07;;;;;;;;;;7393588;19;20031;-77
2022/01/26 08:47:02;;;;;;;28.20;13.13;;;;;;;;;;7395256;19;20017;-78
2022/01/26 08:49:27;;;;;;;31.70;12.38;;;;;;;;;;7393570;19;20006;-78
2022/01/26 08:51:54;;;;;;;32.33;12.75;;;;;;;;;;7393867;19;20084;-78
2022/01/26 08:54:22;;;;;;;27.08;12.40;;;;;;;;;;7394687;19;20454;-79
2022/01/26 08:56:52;;;;;;;25.48;11.63;;;;;;;;;;7396818;19;20011;-78
2022/01/26 08:59:19;;;;;;;30.23;13.65;;;;;;;;;;7392251;19;20006;-78
2022/01/26 09:01:44;;;;;;;31.83;13.23;;;;;;;;;;7391938;19;20010;-78
2022/01/26 09:04:10;;;;;;;31.30;12.60;;;;;;;;;;7393653;19;20012;-79
2022/01/26 09:06:39;;;;;;;35.45;14.38;;;;;;;;;;7394645;19;20028;-77
2022/01/26 09:09:07;;;;;;;33.67;13.93;;;;;;;;;;7393967;19;20058;-79
2022/01/26 09:11:35;;;;;;;30.80;12.93;;;;;;;;;;7390574;19;20341;-77
2022/01/26 09:14:07;;;;;;;31.65;13.13;;;;;;;;;;7391352;19;20010;-78
2022/01/26 09:16:32;;;;;;;40.88;16.58;;;;;;;;;;7387454;19;20010;-79
2022/01/26 09:19:05;;;;;;;32.13;13.63;;;;;;;;;;7388782;19;20022;-78
2022/01/26 09:21:30;;;;;;;30.00;13.00;;;;;;;;;;7388708;19;20021;-78
2022/01/26 09:23:55;;;;;;;34.53;14.60;;;;;;;;;;7387475;19;19998;-78
2022/01/26 09:26:21;;;;;;;28.17;13.32;;;;;;;;;;7391256;19;20006;-78
2022/01/26 09:28:46;;;;;;;31.30;12.45;;;;;;;;;;7388828;19;20075;-78
2022/01/26 09:31:11;;;;;;;30.98;13.98;;;;;;;;;;7388635;19;19998;-78
2022/01/26 09:33:37;;;;;;;36.72;14.70;;;;;;;;;;7387719;19;20470;-77
2022/01/26 09:36:03;;;;;;;32.58;13.23;;;;;;;;;;7391051;19;20041;-78
2022/01/26 09:38:28;;;;;;;30.73;12.63;;;;;;;;;;7390895;19;20310;-77
2022/01/26 09:40:54;;;;;;;36.83;15.02;;;;;;;;;;7392771;19;20011;-78
2022/01/26 09:43:19;;;;;;;33.03;13.85;;;;;;;;;;7391152;19;20006;-78
2022/01/26 09:45:45;;;;;;;34.92;14.85;;;;;;;;;;7388424;19;20036;-78
2022/01/26 09:48:12;;;;;;;34.13;13.80;;;;;;;;;;7390190;19;20009;-77
2022/01/26 09:50:42;;;;;;;31.48;13.65;;;;;;;;;;7389911;19;20014;-77
2022/01/26 09:53:07;;;;;;;42.15;14.55;;;;;;;;;;7393871;19;20010;-78
2022/01/26 09:55:32;;;;;;;34.08;13.43;;;;;;;;;;7396888;19;20006;-79
2022/01/26 09:57:58;;;;;;;39.42;14.43;;;;;;;;;;7390672;19;20037;-78
2022/01/26 10:00:28;;;;;;;31.63;13.30;;;;;;;;;;7394100;19;20043;-78
2022/01/26 10:03:04;;;;;;;31.10;13.75;;;;;;;;;;7398835;19;20002;-78
2022/01/26 10:05:44;;;;;;;33.72;13.50;;;;;;;;;;7398466;19;20006;-78
2022/01/26 10:18:54;;;;;;;35.75;15.40;;;;;;;;;;7396527;19;20006;-78
2022/01/26 10:21:20;;;;;;;38.45;15.27;;;;;;;;;;7395975;19;20010;-77
2022/01/26 10:23:45;;;;;;;29.85;13.40;;;;;;;;;;7401759;19;20017;-80
2022/01/26 10:26:19;;;;;;;36.20;16.25;;;;;;;;;;7403697;19;20002;-80
2022/01/26 10:28:53;;;;;;;32.70;16.00;;;;;;;;;;7402898;19;20016;-80
2022/01/26 10:31:21;;;;;;;29.70;13.00;;;;;;;;;;7396606;19;20066;-79
2022/01/26 10:33:56;;;;;;;34.97;16.73;;;;;;;;;;7394987;19;20045;-78
2022/01/26 10:36:22;;;;;;;36.78;15.15;;;;;;;;;;7392766;19;20110;-77
2022/01/26 10:39:02;;;;;;;32.97;14.35;;;;;;;;;;7396186;19;20007;-77
2022/01/26 10:41:27;;;;;;;39.00;15.93;;;;;;;;;;7393026;19;20356;-78
2022/01/26 10:43:55;;;;;;;35.00;14.77;;;;;;;;;;7395467;19;20018;-78
2022/01/26 10:46:34;;;;;;;30.20;15.35;;;;;;;;;;7394971;19;19998;-78
2022/01/26 10:49:42;;;;;;;29.83;13.65;;;;;;;;;;7396285;19;20470;-78
2022/01/26 10:52:01;;;;;;;33.38;14.90;;;;;;;;;;7392740;19;19998;-78
2022/01/26 10:54:39;;;;;;;33.00;15.10;;;;;;;;;;7393707;19;20021;-79
2022/01/26 10:57:06;;;;;;;38.95;15.52;;;;;;;;;;7395972;19;20011;-78
2022/01/26 10:59:34;;;;;;;42.40;16.42;;;;;;;;;;7391782;19;20011;-78
2022/01/26 11:02:07;;;;;;;31.98;14.18;;;;;;;;;;7392921;19;20002;-78
2022/01/26 11:04:34;;;;;;;40.63;16.48;;;;;;;;;;7393116;19;20014;-79
2022/01/26 11:07:01;;;;;;;34.95;14.30;;;;;;;;;;7391923;19;20007;-78
2022/01/26 11:09:30;;;;;;;29.38;13.73;;;;;;;;;;7392658;19;20013;-78
2022/01/26 11:12:00;;;;;;;45.28;19.33;;;;;;;;;;7388768;19;20016;-78
2022/01/26 11:14:38;;;;;;;37.67;15.75;;;;;;;;;;7393818;19;20139;-78
2022/01/26 11:17:03;;;;;;;44.70;21.92;;;;;;;;;;7392699;19;20027;-78
2022/01/26 11:19:39;;;;;;;38.78;18.70;;;;;;;;;;7391201;19;20003;-77
2022/01/26 11:22:09;;;;;;;43.70;19.00;;;;;;;;;;7391923;19;20082;-77
2022/01/26 11:24:48;;;;;;;37.97;17.67;;;;;;;;;;7390572;19;20397;-76
2022/01/26 11:27:16;;;;;;;36.95;16.63;;;;;;;;;;7390762;19;20469;-77
2022/01/26 11:29:47;;;;;;;37.50;16.63;;;;;;;;;;7391309;19;19994;-77
2022/01/26 11:32:19;;;;;;;39.47;17.45;;;;;;;;;;7389683;19;20018;-77
2022/01/26 11:34:48;;;;;;;36.70;16.05;;;;;;;;;;7393934;19;19998;-77
2022/01/26 11:37:16;;;;;;;36.88;16.55;;;;;;;;;;7394289;19;20363;-78
2022/01/26 11:45:04;;;;;;;35.67;16.92;;;;;;;;;;7393742;19;20076;-77
2022/01/26 11:45:35;;;;;;;33.15;14.70;;;;;;;;;;7390661;19;20005;-76
2022/01/26 11:48:20;;;;;;;32.60;14.50;;;;;;;;;;7390356;19;20014;-77
2022/01/26 11:51:00;;;;;;;33.20;15.48;;;;;;;;;;7391894;19;20715;-77
2022/01/26 11:53:26;;;;;;;34.83;15.10;;;;;;;;;;7393121;19;19998;-76
2022/01/26 11:56:00;;;;;;;31.13;14.10;;;;;;;;;;7390344;19;20002;-76
2022/01/26 11:58:33;;;;;;;28.27;13.07;;;;;;;;;;7391114;19;20006;-77
2022/01/26 12:01:27;;;;;;;35.17;14.55;;;;;;;;;;7391344;19;20036;-77
2022/01/26 12:04:02;;;;;;;30.25;14.70;;;;;;;;;;7393370;19;20401;-78
2022/01/26 12:06:35;;;;;;;35.13;15.07;;;;;;;;;;7393615;19;20045;-78
2022/01/26 12:09:00;;;;;;;33.15;15.45;;;;;;;;;;7388290;19;20002;-77
2022/01/26 12:11:29;;;;;;;33.17;14.52;;;;;;;;;;7390777;19;19999;-78
2022/01/26 12:14:06;;;;;;;32.45;14.73;;;;;;;;;;7391996;19;20013;-78
2022/01/26 12:16:37;;;;;;;31.95;14.13;;;;;;;;;;7391868;19;20011;-79
2022/01/26 12:19:26;;;;;;;37.97;15.13;;;;;;;;;;7392222;19;20074;-78
2022/01/26 12:33:54;;;;;;;30.58;12.77;;;;;;;;;;7389114;19;20270;-77
2022/01/26 12:38:45;;;;;;;28.23;12.32;;;;;;;;;;7387413;19;20459;-78
2022/01/26 12:41:29;;;;;;;24.55;11.43;;;;;;;;;;7389685;19;20010;-78
2022/01/26 12:44:06;;;;;;;25.70;11.82;;;;;;;;;;7386104;19;20010;-78
2022/01/26 12:46:33;;;;;;;28.52;13.50;;;;;;;;;;7390852;19;20475;-79
2022/01/26 12:49:13;;;;;;;25.17;12.55;;;;;;;;;;7387826;19;20096;-78
2022/01/26 12:51:47;;;;;;;24.73;11.90;;;;;;;;;;7388295;19;20045;-79
2022/01/26 12:54:13;;;;;;;28.05;12.80;;;;;;;;;;7387725;19;20010;-78
2022/01/26 12:56:39;;;;;;;27.63;12.98;;;;;;;;;;7387104;19;20070;-78
2022/01/26 12:59:06;;;;;;;28.05;12.40;;;;;;;;;;7384441;19;20023;-79
2022/01/26 13:01:33;;;;;;;31.70;13.52;;;;;;;;;;7387462;19;20434;-78
2022/01/26 13:04:00;;;;;;;25.48;12.43;;;;;;;;;;7387708;19;20018;-78
2022/01/26 13:06:28;;;;;;;24.63;11.73;;;;;;;;;;7389373;19;20430;-80
2022/01/26 13:08:55;;;;;;;26.00;12.30;;;;;;;;;;7388468;19;20010;-78
2022/01/26 13:11:30;;;;;;;23.00;11.77;;;;;;;;;;7383454;19;20510;-78
2022/01/26 13:14:03;;;;;;;25.63;12.45;;;;;;;;;;7387737;19;20010;-78
2022/01/26 13:16:35;;;;;;;36.85;12.40;;;;;;;;;;7389914;19;20011;-79
2022/01/26 13:22:01;;;;;;;24.63;11.70;;;;;;;;;;7386559;19;20014;-78
2022/01/26 13:24:51;;;;;;;26.00;12.38;;;;;;;;;;7391000;19;20492;-78
2022/01/26 13:35:19;;;;;;;30.80;14.48;;;;;;;;;;7391197;19;20023;-79
2022/01/26 13:51:33;;;;;;;26.00;12.77;;;;;;;;;;7390000;19;20459;-80
2022/01/26 13:54:23;;;;;;;29.10;13.13;;;;;;;;;;7388123;19;20011;-79
2022/01/26 13:59:16;;;;;;;32.47;13.05;;;;;;;;;;7389244;19;20542;-78
2022/01/26 14:01:45;;;;;;;29.48;13.02;;;;;;;;;;7385277;19;20005;-79
2022/01/26 14:04:12;;;;;;;23.30;11.88;;;;;;;;;;7389319;19;20114;-79
2022/01/26 14:06:37;;;;;;;24.77;12.15;;;;;;;;;;7388997;19;20011;-79
2022/01/26 14:09:03;;;;;;;27.70;12.05;;;;;;;;;;7388784;19;20014;-79
2022/01/26 14:11:28;;;;;;;25.90;12.48;;;;;;;;;;7387710;19;20316;-79
2022/01/26 14:13:56;;;;;;;22.77;10.63;;;;;;;;;;7388061;19;20089;-79
2022/01/26 14:16:24;;;;;;;24.50;11.70;;;;;;;;;;7389083;19;20040;-79
2022/01/26 14:19:04;;;;;;;20.20;10.80;;;;;;;;;;7388245;19;20018;-79
2022/01/26 14:21:40;;;;;;;22.98;10.88;;;;;;;;;;7387995;19;20002;-79
2022/01/26 14:26:44;;;;;;;27.70;12.47;;;;;;;;;;7386715;19;20079;-79
2022/01/26 14:29:28;;;;;;;27.85;11.52;;;;;;;;;;7388673;19;20453;-78
2022/01/26 15:19:06;;;;;;;21.75;10.73;;;;;;;;;;7394739;19;20011;-77
2022/01/26 15:34:16;;;;;;;18.30;9.35;;;;;;;;;;7395936;19;20014;-78
2022/01/26 15:49:54;;;;;;;22.42;10.63;;;;;;;;;;7393828;19;20312;-78
2022/01/26 15:52:44;;;;;;;27.35;11.40;;;;;;;;;;7391867;19;20010;-76
2022/01/26 15:58:10;;;;;;;24.65;10.13;;;;;;;;;;7392749;19;20023;-77
2022/01/26 16:21:45;;;;;;;22.35;9.80;;;;;;;;;;7391943;19;20016;-77
2022/01/26 17:43:17;;;;;;;17.55;8.35;;;;;;;;;;7392825;19;20446;-78
2022/01/26 18:06:40;;;;;;;18.98;9.05;;;;;;;;;;7389391;19;20031;-78
2022/01/26 18:50:34;;;;;;;23.05;8.85;;;;;;;;;;7398026;19;20023;-78
2022/01/26 18:52:59;;;;;;;24.45;9.75;;;;;;;;;;7394779;19;19994;-79
2022/01/26 18:55:25;;;;;;;21.83;9.45;;;;;;;;;;7396609;19;20018;-80
2022/01/26 18:57:50;;;;;;;28.48;11.40;;;;;;;;;;7397625;19;20102;-78
2022/01/26 19:00:16;;;;;;;28.35;11.00;;;;;;;;;;7394887;19;20579;-79
2022/01/26 19:02:41;;;;;;;23.70;10.23;;;;;;;;;;7392314;19;20010;-80
2022/01/26 19:05:07;;;;;;;27.13;11.15;;;;;;;;;;7391393;19;20399;-79
2022/01/26 19:07:34;;;;;;;22.95;10.25;;;;;;;;;;7395817;19;20055;-79
2022/01/26 19:09:59;;;;;;;26.83;11.48;;;;;;;;;;7391289;19;20500;-79
2022/01/26 19:12:27;;;;;;;25.20;10.75;;;;;;;;;;7393156;19;20003;-78
2022/01/26 19:14:57;;;;;;;24.20;10.27;;;;;;;;;;7394256;19;20010;-80
2022/01/26 19:17:31;;;;;;;26.02;10.80;;;;;;;;;;7392771;19;20018;-79
2022/01/26 19:20:10;;;;;;;29.52;12.07;;;;;;;;;;7392937;19;20023;-79
2022/01/26 19:25:08;;;;;;;29.40;12.88;;;;;;;;;;7396556;19;20027;-80
2022/01/26 19:32:56;;;;;;;27.88;11.63;;;;;;;;;;7392730;19;20007;-81
2022/01/26 19:43:53;;;;;;;26.50;10.77;;;;;;;;;;7396430;19;20010;-80
2022/01/26 19:51:34;;;;;;;23.23;10.57;;;;;;;;;;7391932;19;20003;-80
2022/01/26 19:54:00;;;;;;;27.10;11.25;;;;;;;;;;7395859;19;20029;-80
2022/01/26 19:56:25;;;;;;;29.25;11.68;;;;;;;;;;7393869;19;20006;-80
2022/01/26 19:58:50;;;;;;;26.70;11.48;;;;;;;;;;7390913;19;20063;-79
2022/01/26 20:01:18;;;;;;;29.15;12.73;;;;;;;;;;7392015;19;20443;-79
2022/01/26 20:03:44;;;;;;;26.50;11.27;;;;;;;;;;7393685;19;20119;-79
2022/01/26 20:06:12;;;;;;;30.55;11.65;;;;;;;;;;7396156;19;20327;-79
2022/01/26 20:08:40;;;;;;;26.58;11.13;;;;;;;;;;7395224;19;20325;-81
2022/01/26 20:11:14;;;;;;;31.58;11.93;;;;;;;;;;7393343;19;20014;-80
2022/01/26 20:13:41;;;;;;;31.23;12.10;;;;;;;;;;7392850;19;20011;-78
2022/01/26 20:16:09;;;;;;;32.85;13.43;;;;;;;;;;7398081;19;20010;-80
2022/01/26 20:18:35;;;;;;;24.23;10.73;;;;;;;;;;7393285;19;20014;-78
2022/01/26 20:21:02;;;;;;;29.40;11.82;;;;;;;;;;7393771;19;20006;-79
2022/01/26 20:23:35;;;;;;;28.90;12.07;;;;;;;;;;7393775;19;20010;-81
2022/01/26 20:26:03;;;;;;;28.40;11.85;;;;;;;;;;7394189;19;20051;-79
2022/01/26 20:28:31;;;;;;;24.95;10.18;;;;;;;;;;7393431;19;20018;-82
2022/01/26 20:31:00;;;;;;;28.25;12.07;;;;;;;;;;7395261;19;20011;-80
2022/01/26 20:33:26;;;;;;;32.97;12.52;;;;;;;;;;7393016;19;20433;-80
2022/01/26 20:35:51;;;;;;;29.85;11.40;;;;;;;;;;7395169;19;20011;-79
2022/01/26 20:38:17;;;;;;;31.23;12.43;;;;;;;;;;7393804;19;20384;-80
2022/01/26 20:40:42;;;;;;;31.33;12.80;;;;;;;;;;7394199;19;20056;-80
2022/01/26 20:43:09;;;;;;;30.25;12.27;;;;;;;;;;7395545;19;20006;-79
2022/01/26 20:45:34;;;;;;;31.67;12.57;;;;;;;;;;7392753;19;20769;-80
2022/01/26 20:48:01;;;;;;;33.85;13.05;;;;;;;;;;7394518;19;19998;-80
2022/01/26 20:50:29;;;;;;;32.45;13.07;;;;;;;;;;7393095;19;20010;-81
2022/01/26 20:52:54;;;;;;;29.95;11.98;;;;;;;;;;7395563;19;20062;-80
2022/01/26 20:55:20;;;;;;;26.48;10.95;;;;;;;;;;7395810;19;20367;-80
2022/01/26 20:57:46;;;;;;;29.63;10.35;;;;;;;;;;7393677;19;20006;-80
2022/01/26 21:00:14;;;;;;;28.70;11.23;;;;;;;;;;7392889;19;20185;-80
2022/01/26 21:02:39;;;;;;;34.72;12.32;;;;;;;;;;7394713;19;19995;-79
2022/01/26 21:05:06;;;;;;;37.63;14.40;;;;;;;;;;7392738;19;20484;-80
2022/01/26 21:07:32;;;;;;;33.42;12.85;;;;;;;;;;7394093;19;20015;-81
2022/01/26 21:09:58;;;;;;;31.55;11.52;;;;;;;;;;7394669;19;20466;-80
2022/01/26 21:12:23;;;;;;;28.00;11.02;;;;;;;;;;7392620;19;20003;-80
2022/01/26 21:14:50;;;;;;;27.33;12.27;;;;;;;;;;7393023;19;20022;-79